Time;durP1;ratioP1;P1;durP2;ratioP2;P2;SDS_P1;SDS_P2;PMS_P1;PMS_P2;Temp;Humidity;BMP_temperature;BMP_pressure;BME280_temperature;BME280_humidity;BME280_pressure;Samples;Min_cycle;Max_cycle;Signal;HPM_P1;HPM_P2
2022/07/06 00:00:00;;;;;;;;;12.00;12.00;;;31.82;97369.31;;;;119245;1186;25212;-67
2022/07/06 00:02:48;;;;;;;;;13.25;11.50;;;31.87;97371.75;;;;119225;1187;24863;-67
2022/07/06 00:05:16;;;;;;;;;12.50;12.25;;;31.79;97377.27;;;;118974;1190;25176;-69
2022/07/06 00:07:44;;;;;;;;;16.50;13.50;;;31.74;97382.48;;;;119117;1186;25055;-68
2022/07/06 00:10:12;;;;;;;;;12.00;12.00;;;31.72;97387.71;;;;119101;1187;25354;-68
2022/07/06 00:12:40;;;;;;;;;21.25;15.00;;;31.68;97387.66;;;;119131;1188;24836;-67
2022/07/06 00:15:08;;;;;;;;;14.50;13.00;;;31.62;97391.28;;;;119131;1187;25621;-67
2022/07/06 00:17:36;;;;;;;;;15.25;15.25;;;31.60;97387.67;;;;119101;1187;25496;-68
2022/07/06 00:20:04;;;;;;;;;13.75;13.75;;;31.59;97382.60;;;;119108;1188;25152;-69
2022/07/06 00:22:32;;;;;;;;;14.00;14.00;;;31.58;97378.52;;;;119203;1187;24862;-67
2022/07/06 00:25:00;;;;;;;;;13.00;12.00;;;31.57;97372.88;;;;119261;1187;25166;-66
2022/07/06 00:27:28;;;;;;;;;17.75;15.25;;;31.58;97369.95;;;;118998;1189;25116;-66
2022/07/06 00:29:55;;;;;;;;;16.25;14.50;;;31.54;97369.94;;;;119086;1188;25307;-67
2022/07/06 00:32:25;;;;;;;;;10.00;10.00;;;31.51;97364.33;;;;119185;1188;25099;-67
2022/07/06 00:34:53;;;;;;;;;11.25;11.25;;;31.52;97360.27;;;;119190;1187;26525;-67
2022/07/06 00:37:22;;;;;;;;;14.00;11.75;;;31.53;97360.23;;;;119013;1188;25145;-66
2022/07/06 00:39:50;;;;;;;;;16.00;13.00;;;31.52;97358.48;;;;119119;1187;25155;-66
2022/07/06 00:42:18;;;;;;;;;13.33;12.67;;;31.50;97355.08;;;;119146;1188;24826;-65
2022/07/06 00:44:46;;;;;;;;;14.25;14.00;;;31.50;97353.34;;;;119246;1187;25645;-66
2022/07/06 00:47:14;;;;;;;;;13.75;13.25;;;31.52;97351.20;;;;119248;1186;25661;-65
2022/07/06 00:52:28;;;;;;;;;11.00;9.00;;;31.54;97350.40;;;;119225;1186;25128;-66
2022/07/06 00:54:56;;;;;;;;;14.00;14.00;;;31.53;97350.73;;;;119236;1187;25260;-66
2022/07/06 00:57:23;;;;;;;;;12.50;12.50;;;31.55;97354.48;;;;119030;1188;25560;-66
2022/07/06 00:59:51;;;;;;;;;14.00;13.75;;;31.54;97352.04;;;;119266;1186;25413;-66
2022/07/06 01:02:20;;;;;;;;;12.00;11.75;;;31.53;97353.64;;;;119260;1186;25557;-67
2022/07/06 01:04:48;;;;;;;;;15.75;14.75;;;31.55;97351.98;;;;119140;1188;25177;-65
2022/07/06 01:07:16;;;;;;;;;10.50;10.50;;;31.56;97353.27;;;;119205;1188;24866;-66
2022/07/06 01:09:44;;;;;;;;;13.50;12.25;;;31.57;97353.38;;;;119226;1187;25230;-67
2022/07/06 01:12:12;;;;;;;;;11.50;11.50;;;31.56;97356.20;;;;119230;1186;24807;-66
2022/07/06 01:14:40;;;;;;;;;11.25;11.25;;;31.57;97355.46;;;;119228;1187;25196;-65
2022/07/06 01:17:08;;;;;;;;;12.25;12.25;;;31.58;97359.89;;;;119037;1188;25556;-65
2022/07/06 01:19:36;;;;;;;;;11.50;10.75;;;31.60;97368.40;;;;119243;1187;25599;-65
2022/07/06 01:22:04;;;;;;;;;12.00;11.50;;;31.60;97371.46;;;;119234;1187;25041;-64
2022/07/06 01:24:35;;;;;;;;;11.25;11.00;;;31.60;97374.37;;;;119225;1187;25397;-64
2022/07/06 01:27:05;;;;;;;;;11.50;11.50;;;31.61;97380.16;;;;119270;1187;25395;-64
2022/07/06 01:29:33;;;;;;;;;14.50;14.00;;;31.59;97377.21;;;;119261;1186;25285;-65
2022/07/06 01:32:01;;;;;;;;;13.00;12.25;;;31.60;97374.35;;;;119238;1186;25614;-65
2022/07/06 01:34:30;;;;;;;;;15.00;14.00;;;31.58;97370.59;;;;119211;1188;25565;-65
2022/07/06 01:36:57;;;;;;;;;15.25;13.25;;;31.57;97369.77;;;;119236;1187;25405;-66
2022/07/06 01:39:25;;;;;;;;;11.75;11.75;;;31.56;97371.58;;;;119171;1188;25223;-65
2022/07/06 01:41:53;;;;;;;;;11.00;11.00;;;31.57;97372.91;;;;119066;1187;25327;-65
2022/07/06 01:44:21;;;;;;;;;12.33;12.33;;;31.58;97374.80;;;;119105;1187;25429;-66
2022/07/06 01:46:49;;;;;;;;;12.33;12.33;;;31.58;97373.91;;;;119086;1187;26275;-65
2022/07/06 01:49:17;;;;;;;;;12.25;12.25;;;31.59;97382.20;;;;119119;1187;25407;-67
2022/07/06 01:51:44;;;;;;;;;11.50;11.50;;;31.60;97382.52;;;;119009;1189;26467;-65
2022/07/06 01:54:12;;;;;;;;;11.00;11.00;;;31.62;97383.80;;;;119109;1187;25598;-66
2022/07/06 01:56:40;;;;;;;;;12.75;10.75;;;31.62;97385.24;;;;118978;1189;25609;-66
2022/07/06 01:59:09;;;;;;;;;10.25;8.50;;;31.62;97390.19;;;;119078;1188;25463;-65
2022/07/06 02:01:37;;;;;;;;;11.75;11.00;;;31.62;97404.98;;;;119092;1188;25559;-66
2022/07/06 02:04:05;;;;;;;;;10.75;10.75;;;31.65;97412.30;;;;119007;1188;24972;-65
2022/07/06 02:06:33;;;;;;;;;14.00;14.00;;;31.65;97422.11;;;;119073;1187;25631;-65
2022/07/06 02:09:00;;;;;;;;;11.75;10.75;;;31.65;97425.03;;;;119116;1187;24828;-65
2022/07/06 02:11:28;;;;;;;;;12.75;11.00;;;31.65;97421.45;;;;119120;1188;25282;-65
2022/07/06 02:13:56;;;;;;;;;14.75;12.50;;;31.64;97419.71;;;;119074;1189;25644;-65
2022/07/06 02:16:24;;;;;;;;;12.75;12.25;;;31.63;97415.81;;;;119061;1188;25672;-67
2022/07/06 02:18:52;;;;;;;;;12.25;11.75;;;31.63;97406.14;;;;119211;1188;24830;-66
2022/07/06 02:21:20;;;;;;;;;12.33;12.33;;;31.64;97400.92;;;;119223;1187;24845;-66
2022/07/06 02:23:48;;;;;;;;;12.00;11.25;;;31.64;97399.95;;;;119240;1186;25018;-65
2022/07/06 02:26:16;;;;;;;;;11.75;10.00;;;31.65;97411.38;;;;119255;1187;24773;-65
2022/07/06 02:28:47;;;;;;;;;11.75;11.25;;;31.66;97422.08;;;;119117;1187;25327;-66
2022/07/06 02:31:15;;;;;;;;;11.50;11.25;;;31.67;97436.14;;;;119100;1187;25655;-66
2022/07/06 02:33:43;;;;;;;;;16.75;13.25;;;31.69;97455.21;;;;119193;1186;25275;-65
2022/07/06 02:36:10;;;;;;;;;12.25;10.75;;;31.70;97474.47;;;;119143;1188;25685;-65
2022/07/06 02:38:38;;;;;;;;;12.50;11.50;;;31.71;97493.64;;;;119146;1187;24771;-65
2022/07/06 02:41:06;;;;;;;;;11.00;11.00;;;31.68;97502.94;;;;119116;1188;25362;-65
2022/07/06 02:43:34;;;;;;;;;11.25;11.00;;;31.68;97507.83;;;;119152;1187;25640;-65
2022/07/06 02:46:02;;;;;;;;;10.75;10.75;;;31.66;97504.56;;;;119017;1188;25600;-65
2022/07/06 02:48:30;;;;;;;;;12.50;12.50;;;31.68;97502.55;;;;119170;1187;25498;-66
2022/07/06 02:50:58;;;;;;;;;11.75;11.50;;;31.67;97504.23;;;;119190;1188;25210;-65
2022/07/06 02:53:26;;;;;;;;;13.00;13.00;;;31.68;97500.48;;;;118986;1189;24870;-66
2022/07/06 02:55:54;;;;;;;;;11.25;11.25;;;31.71;97502.95;;;;119226;1188;25396;-66
2022/07/06 02:58:22;;;;;;;;;14.00;13.25;;;31.70;97502.63;;;;119137;1187;25656;-66
2022/07/06 03:00:51;;;;;;;;;11.50;11.00;;;31.69;97507.34;;;;119223;1188;25585;-66
2022/07/06 03:03:19;;;;;;;;;14.50;12.00;;;31.67;97517.45;;;;119258;1188;24956;-66
2022/07/06 03:05:48;;;;;;;;;11.00;11.00;;;31.68;97520.69;;;;119211;1187;24907;-66
2022/07/06 03:08:16;;;;;;;;;13.25;12.50;;;31.68;97520.03;;;;118997;1189;24974;-66
2022/07/06 03:10:44;;;;;;;;;10.75;9.50;;;31.67;97523.02;;;;119196;1187;25088;-65
2022/07/06 03:13:12;;;;;;;;;14.25;11.25;;;31.66;97530.31;;;;119196;1187;25304;-66
2022/07/06 03:15:39;;;;;;;;;15.75;13.75;;;31.66;97527.34;;;;119022;1188;25656;-65
2022/07/06 03:18:07;;;;;;;;;11.25;11.25;;;31.68;97532.11;;;;119267;1187;25049;-65
2022/07/06 03:20:36;;;;;;;;;13.75;11.75;;;31.67;97529.61;;;;119057;1188;25268;-65
2022/07/06 03:23:04;;;;;;;;;10.75;10.75;;;31.66;97533.51;;;;119253;1186;25600;-64
2022/07/06 03:25:32;;;;;;;;;10.25;10.25;;;31.65;97533.54;;;;119220;1187;25306;-67
2022/07/06 03:28:00;;;;;;;;;19.00;13.00;;;31.67;97534.47;;;;119196;1188;25385;-68
2022/07/06 03:30:28;;;;;;;;;10.75;10.75;;;31.66;97530.55;;;;119191;1187;25494;-68
2022/07/06 03:32:58;;;;;;;;;9.75;9.25;;;31.62;97528.67;;;;119165;1188;25624;-69
2022/07/06 03:35:26;;;;;;;;;13.75;12.25;;;31.60;97533.89;;;;119242;1187;25302;-69
2022/07/06 03:37:55;;;;;;;;;12.75;11.25;;;31.62;97534.98;;;;119213;1187;25283;-72
2022/07/06 03:40:22;;;;;;;;;12.25;11.50;;;31.62;97533.28;;;;119192;1187;25463;-68
2022/07/06 03:42:51;;;;;;;;;9.25;9.25;;;31.58;97526.04;;;;119162;1187;25276;-67
2022/07/06 03:45:18;;;;;;;;;14.33;10.33;;;31.55;97521.48;;;;119188;1187;25742;-69
2022/07/06 03:47:46;;;;;;;;;9.25;9.25;;;31.54;97515.42;;;;119220;1188;25519;-70
2022/07/06 03:50:14;;;;;;;;;11.50;10.00;;;31.54;97517.18;;;;119265;1186;25549;-69
2022/07/06 03:52:43;;;;;;;;;16.00;12.00;;;31.51;97520.20;;;;119161;1188;25226;-71
2022/07/06 03:55:11;;;;;;;;;14.75;12.50;;;31.52;97521.40;;;;119148;1188;25124;-68
2022/07/06 03:57:40;;;;;;;;;9.25;9.00;;;31.40;97518.42;;;;119210;1187;25207;-71
2022/07/06 04:00:09;;;;;;;;;10.00;9.25;;;31.35;97512.83;;;;119129;1188;24809;-70
2022/07/06 04:02:37;;;;;;;;;9.50;9.50;;;31.35;97515.95;;;;119133;1188;25247;-71
2022/07/06 04:05:05;;;;;;;;;11.50;9.50;;;31.34;97514.09;;;;119156;1187;25241;-69
2022/07/06 04:07:33;;;;;;;;;13.00;10.00;;;31.33;97514.98;;;;118995;1188;25479;-80
2022/07/06 04:10:02;;;;;;;;;13.25;10.75;;;31.32;97520.84;;;;118923;1189;25415;-66
2022/07/06 04:12:30;;;;;;;;;13.25;10.00;;;31.03;97526.27;;;;119166;1186;25240;-66
2022/07/06 04:14:58;;;;;;;;;12.75;9.50;;;30.82;97524.98;;;;118997;1189;25162;-66
2022/07/06 04:20:12;;;;;;;;;8.75;8.75;;;30.62;97525.31;;;;119105;1187;25130;-66
2022/07/06 04:22:40;;;;;;;;;14.50;12.00;;;30.52;97525.52;;;;119090;1188;25425;-62
2022/07/06 04:25:08;;;;;;;;;26.75;19.75;;;30.44;97525.37;;;;119126;1188;25921;-66
2022/07/06 04:27:36;;;;;;;;;20.67;15.33;;;30.38;97525.22;;;;119125;1188;24947;-68
2022/07/06 04:30:05;;;;;;;;;19.25;13.25;;;30.12;97524.89;;;;119263;1186;25345;-68
2022/07/06 04:32:34;;;;;;;;;14.25;13.00;;;29.99;97527.43;;;;119270;1187;24987;-70
2022/07/06 04:35:04;;;;;;;;;12.50;11.00;;;29.91;97526.60;;;;119235;1187;25289;-69
2022/07/06 04:37:32;;;;;;;;;7.50;6.25;;;29.89;97524.89;;;;119196;1187;25665;-71
2022/07/06 04:40:00;;;;;;;;;10.75;10.75;;;29.79;97525.71;;;;119109;1188;25663;-69
2022/07/06 04:42:28;;;;;;;;;19.00;12.50;;;29.57;97521.19;;;;118964;1189;25779;-69
2022/07/06 04:44:56;;;;;;;;;16.00;11.25;;;29.40;97518.73;;;;119175;1186;25513;-69
2022/07/06 04:47:24;;;;;;;;;11.00;10.33;;;29.31;97516.82;;;;119210;1186;24788;-69
2022/07/06 04:49:52;;;;;;;;;19.00;12.75;;;29.26;97517.83;;;;119023;1189;25550;-67
2022/07/06 04:52:19;;;;;;;;;13.67;10.67;;;29.18;97518.11;;;;119245;1186;25201;-69
2022/07/06 04:54:48;;;;;;;;;11.75;11.00;;;29.02;97516.42;;;;119241;1188;25200;-69
2022/07/06 04:57:16;;;;;;;;;11.50;9.00;;;29.03;97519.46;;;;119258;1188;24942;-69
2022/07/06 04:59:44;;;;;;;;;13.50;10.50;;;28.85;97518.65;;;;119248;1186;24960;-70
2022/07/06 05:02:12;;;;;;;;;12.50;11.00;;;28.81;97520.18;;;;119018;1189;25562;-70
2022/07/06 05:04:39;;;;;;;;;13.75;13.25;;;28.72;97523.05;;;;119256;1187;24874;-68
2022/07/06 05:07:07;;;;;;;;;10.25;9.75;;;28.62;97520.32;;;;119266;1187;25102;-69
2022/07/06 05:09:35;;;;;;;;;15.50;13.00;;;28.53;97515.94;;;;119270;1188;26268;-70
2022/07/06 05:12:03;;;;;;;;;11.25;11.25;;;28.46;97517.60;;;;119268;1186;25654;-70
2022/07/06 05:14:31;;;;;;;;;9.33;9.33;;;28.37;97519.09;;;;119063;1187;25329;-70
2022/07/06 05:16:59;;;;;;;;;11.25;10.25;;;28.37;97519.28;;;;119257;1188;25378;-70
2022/07/06 05:19:27;;;;;;;;;11.25;11.25;;;28.32;97521.29;;;;119268;1187;25077;-70
2022/07/06 05:21:55;;;;;;;;;13.00;11.75;;;28.25;97527.33;;;;119263;1188;25528;-70
2022/07/06 05:24:23;;;;;;;;;10.50;9.25;;;28.21;97531.27;;;;119259;1187;25227;-70
2022/07/06 05:26:51;;;;;;;;;15.25;12.50;;;28.15;97530.50;;;;119246;1188;24799;-70
2022/07/06 05:29:19;;;;;;;;;10.25;10.25;;;28.10;97533.34;;;;119259;1188;26427;-70
2022/07/06 05:31:47;;;;;;;;;12.00;10.50;;;28.01;97536.09;;;;119257;1186;25357;-70
2022/07/06 05:34:15;;;;;;;;;11.50;11.00;;;28.02;97537.18;;;;119244;1187;26552;-69
2022/07/06 05:36:43;;;;;;;;;7.25;5.00;;;27.99;97544.13;;;;119232;1186;25496;-71
2022/07/06 05:39:11;;;;;;;;;16.50;15.25;;;27.95;97545.67;;;;119246;1187;25445;-70
2022/07/06 05:41:39;;;;;;;;;16.50;15.00;;;27.94;97547.59;;;;119269;1188;25300;-71
2022/07/06 05:44:07;;;;;;;;;14.50;12.00;;;27.93;97549.55;;;;119051;1187;24970;-70
2022/07/06 05:46:35;;;;;;;;;10.25;10.25;;;27.91;97549.26;;;;119269;1186;25334;-70
2022/07/06 05:51:50;;;;;;;;;13.00;11.25;;;27.95;97547.88;;;;119261;1187;25588;-69
2022/07/06 05:54:18;;;;;;;;;18.25;15.75;;;27.94;97550.39;;;;119229;1187;24913;-70
2022/07/06 05:56:46;;;;;;;;;13.75;13.75;;;27.86;97556.65;;;;119244;1187;24867;-64
2022/07/06 05:59:13;;;;;;;;;9.75;9.50;;;27.87;97557.02;;;;119287;1186;24964;-69
2022/07/06 06:01:41;;;;;;;;;11.25;11.25;;;27.86;97555.70;;;;119304;1187;24919;-69
2022/07/06 06:04:09;;;;;;;;;13.25;11.00;;;27.89;97558.60;;;;119338;1187;25174;-68
2022/07/06 06:06:37;;;;;;;;;23.00;19.25;;;27.95;97557.66;;;;119344;1187;25432;-70
2022/07/06 06:30:15;;;;;;;;;17.75;12.50;;;28.70;97560.14;;;;117247;1208;23268;-66
2022/07/06 06:32:43;;;;;;;;;19.25;16.50;;;28.85;97561.10;;;;118152;1196;25669;-65
2022/07/06 06:35:11;;;;;;;;;10.50;9.50;;;28.71;97558.84;;;;118165;1196;25423;-67
2022/07/06 06:37:39;;;;;;;;;15.25;14.75;;;28.51;97563.00;;;;118927;1190;25605;-68
2022/07/06 06:40:08;;;;;;;;;10.50;10.25;;;28.40;97563.04;;;;118638;1191;24960;-66
2022/07/06 06:42:37;;;;;;;;;11.25;11.25;;;28.32;97564.20;;;;118708;1191;25460;-67
2022/07/06 06:45:06;;;;;;;;;12.25;12.25;;;28.31;97564.79;;;;118872;1191;25552;-67
2022/07/06 06:47:34;;;;;;;;;14.00;12.50;;;28.25;97564.04;;;;118952;1190;25300;-70
2022/07/06 06:50:02;;;;;;;;;13.25;10.75;;;28.21;97562.77;;;;118656;1192;25286;-70
2022/07/06 06:52:30;;;;;;;;;18.50;15.00;;;28.26;97564.02;;;;118848;1190;26452;-71
2022/07/06 06:55:08;;;;;;;;;20.75;16.25;;;28.29;97564.91;;;;118660;1191;26233;-71
2022/07/06 06:57:37;;;;;;;;;15.33;15.00;;;28.27;97566.61;;;;118670;1191;25407;-71
2022/07/06 07:00:05;;;;;;;;;16.50;13.50;;;28.28;97565.05;;;;118841;1191;25626;-72
2022/07/06 07:02:33;;;;;;;;;16.75;15.75;;;28.29;97568.70;;;;118689;1189;25258;-72
2022/07/06 07:05:02;;;;;;;;;12.00;12.00;;;28.30;97570.88;;;;118658;1191;25552;-72
2022/07/06 07:07:30;;;;;;;;;17.25;17.25;;;28.33;97574.06;;;;118685;1191;24972;-67
2022/07/06 07:09:59;;;;;;;;;18.75;15.75;;;28.27;97572.97;;;;118682;1191;25495;-64
2022/07/06 07:12:26;;;;;;;;;17.25;15.00;;;28.27;97573.15;;;;118671;1191;25703;-67
2022/07/06 07:14:54;;;;;;;;;14.75;13.00;;;28.19;97569.40;;;;118675;1191;25550;-67
2022/07/06 07:17:22;;;;;;;;;15.00;9.50;;;28.17;97567.57;;;;118662;1191;25532;-68
2022/07/06 07:19:50;;;;;;;;;17.75;17.75;;;28.19;97564.70;;;;118891;1191;25701;-71
2022/07/06 07:22:18;;;;;;;;;13.00;12.00;;;28.23;97563.54;;;;118658;1191;25902;-67
2022/07/06 07:24:47;;;;;;;;;15.25;14.75;;;28.17;97563.84;;;;118665;1191;25047;-67
2022/07/06 07:27:15;;;;;;;;;14.75;12.75;;;28.17;97562.08;;;;118667;1191;25293;-67
2022/07/06 07:29:43;;;;;;;;;15.25;13.00;;;28.19;97561.92;;;;118890;1191;25499;-68
2022/07/06 07:32:10;;;;;;;;;15.50;11.50;;;28.17;97564.42;;;;118880;1190;26441;-68
2022/07/06 07:34:38;;;;;;;;;16.00;14.50;;;28.19;97566.67;;;;118676;1191;25159;-67
2022/07/06 07:37:06;;;;;;;;;16.00;15.50;;;28.19;97570.04;;;;118888;1191;25780;-68
2022/07/06 07:39:34;;;;;;;;;16.25;14.50;;;28.16;97565.75;;;;118914;1190;26008;-68
2022/07/06 07:42:02;;;;;;;;;11.00;10.00;;;28.16;97563.48;;;;118692;1191;26391;-68
2022/07/06 07:44:29;;;;;;;;;11.00;11.00;;;28.20;97560.58;;;;118728;1192;24738;-68
2022/07/06 07:46:57;;;;;;;;;8.50;8.50;;;28.19;97559.27;;;;118908;1190;25202;-68
2022/07/06 07:49:25;;;;;;;;;11.75;11.75;;;28.20;97558.37;;;;118945;1191;25749;-68
2022/07/06 07:51:53;;;;;;;;;11.75;11.25;;;28.21;97558.29;;;;118670;1191;25328;-68
2022/07/06 07:54:22;;;;;;;;;10.00;10.00;;;28.17;97557.88;;;;118678;1189;25706;-67
2022/07/06 07:56:50;;;;;;;;;13.00;13.00;;;28.16;97559.46;;;;118723;1191;26095;-68
2022/07/06 07:59:18;;;;;;;;;10.75;8.00;;;28.27;97559.02;;;;118702;1191;25677;-70
2022/07/06 08:01:45;;;;;;;;;9.75;8.50;;;28.24;97559.20;;;;118665;1191;25019;-68
2022/07/06 08:04:13;;;;;;;;;12.25;9.25;;;28.23;97556.92;;;;118653;1191;25743;-69
2022/07/06 08:06:41;;;;;;;;;14.75;13.00;;;28.28;97556.73;;;;118679;1189;24839;-68
2022/07/06 08:09:09;;;;;;;;;13.25;8.25;;;28.30;97559.69;;;;118691;1191;26430;-68
2022/07/06 08:11:37;;;;;;;;;10.00;10.00;;;28.35;97561.70;;;;118897;1191;25839;-68
2022/07/06 08:14:05;;;;;;;;;12.75;12.00;;;28.34;97561.45;;;;118684;1190;25796;-68
2022/07/06 08:16:33;;;;;;;;;12.50;11.00;;;28.30;97558.56;;;;118702;1191;24940;-68
2022/07/06 08:19:01;;;;;;;;;12.00;11.50;;;28.36;97559.22;;;;118708;1191;26496;-68
2022/07/06 08:21:37;;;;;;;;;11.75;11.00;;;28.36;97560.66;;;;118681;1191;25544;-67
2022/07/06 08:24:06;;;;;;;;;11.00;10.50;;;28.41;97565.31;;;;118866;1191;25664;-67
2022/07/06 08:26:34;;;;;;;;;8.25;8.25;;;28.38;97566.84;;;;118866;1191;25703;-68
2022/07/06 08:29:03;;;;;;;;;12.50;10.50;;;28.36;97568.23;;;;118705;1191;25629;-68
2022/07/06 08:31:32;;;;;;;;;11.50;11.50;;;28.41;97568.94;;;;118668;1191;25378;-67
2022/07/06 08:34:20;;;;;;;;;9.50;9.50;;;28.38;97569.55;;;;118900;1189;24851;-68
2022/07/06 08:36:49;;;;;;;;;9.25;9.00;;;28.46;97575.40;;;;118939;1190;24981;-67
2022/07/06 08:39:17;;;;;;;;;15.50;10.75;;;28.41;97576.80;;;;118707;1191;25682;-67
2022/07/06 08:41:47;;;;;;;;;14.00;11.50;;;28.38;97575.38;;;;118696;1191;25052;-67
2022/07/06 08:44:16;;;;;;;;;15.00;15.00;;;28.39;97576.23;;;;118531;1191;25697;-66
2022/07/06 08:46:44;;;;;;;;;13.33;11.67;;;28.36;97575.30;;;;118676;1190;24853;-67
2022/07/06 08:49:15;;;;;;;;;11.50;11.00;;;28.35;97576.46;;;;118674;1191;25230;-67
2022/07/06 08:51:43;;;;;;;;;11.67;10.00;;;28.32;97575.36;;;;118654;1190;25543;-67
2022/07/06 08:54:11;;;;;;;;;14.00;13.50;;;28.29;97576.72;;;;118598;1191;25160;-66
2022/07/06 08:56:40;;;;;;;;;10.25;9.25;;;28.37;97576.91;;;;118544;1191;25535;-66
2022/07/06 08:59:16;;;;;;;;;10.50;9.25;;;28.28;97574.19;;;;118685;1191;25524;-66
2022/07/06 09:01:46;;;;;;;;;7.75;7.00;;;28.31;97574.09;;;;118860;1191;25673;-66
2022/07/06 09:04:18;;;;;;;;;12.25;11.00;;;28.32;97574.11;;;;118665;1191;25685;-67
2022/07/06 09:06:48;;;;;;;;;9.00;9.00;;;28.29;97574.51;;;;118856;1191;25147;-66
2022/07/06 09:09:21;;;;;;;;;9.00;9.00;;;28.27;97573.48;;;;118687;1191;25851;-68
2022/07/06 09:11:50;;;;;;;;;10.67;9.67;;;28.24;97575.59;;;;118828;1191;25740;-67
2022/07/06 09:14:19;;;;;;;;;12.67;9.00;;;28.31;97577.60;;;;118852;1191;25518;-67
2022/07/06 09:16:52;;;;;;;;;9.50;9.50;;;28.39;97578.83;;;;118865;1191;25465;-69
2022/07/06 09:19:20;;;;;;;;;14.00;12.00;;;28.40;97578.36;;;;118862;1191;25049;-66
2022/07/06 09:21:48;;;;;;;;;10.75;10.75;;;28.39;97579.09;;;;118861;1191;24788;-66
2022/07/06 09:24:16;;;;;;;;;14.50;12.00;;;28.30;97578.80;;;;118918;1190;26684;-66
2022/07/06 09:26:45;;;;;;;;;14.33;11.33;;;28.24;97576.49;;;;118909;1191;25455;-67
2022/07/06 09:29:13;;;;;;;;;12.25;10.00;;;28.26;97579.36;;;;118824;1191;26169;-66
2022/07/06 10:04:36;;;;;;;;;8.50;8.50;;;29.45;97597.80;;;;117349;1206;23189;-65
2022/07/06 10:07:07;;;;;;;;;11.25;9.75;;;29.91;97597.71;;;;118427;1194;25299;-66
2022/07/06 10:09:35;;;;;;;;;11.50;8.50;;;29.77;97596.59;;;;118951;1190;25665;-66
2022/07/06 10:12:04;;;;;;;;;11.25;10.75;;;29.58;97591.70;;;;118866;1191;26270;-64
2022/07/06 10:14:33;;;;;;;;;11.25;10.75;;;29.46;97590.20;;;;118949;1191;25212;-65
2022/07/06 10:17:04;;;;;;;;;12.50;10.75;;;29.38;97586.56;;;;118952;1190;25552;-68
2022/07/06 10:19:33;;;;;;;;;9.75;8.50;;;29.35;97588.25;;;;118905;1190;24912;-65
2022/07/06 10:22:03;;;;;;;;;8.75;8.75;;;29.31;97589.95;;;;118500;1192;25378;-67
2022/07/06 10:24:34;;;;;;;;;9.00;8.50;;;29.33;97587.85;;;;118897;1190;24992;-67
2022/07/06 10:27:03;;;;;;;;;10.75;10.75;;;29.30;97585.97;;;;118915;1190;25388;-66
2022/07/06 10:29:34;;;;;;;;;10.50;8.00;;;29.23;97584.92;;;;118867;1190;25248;-64
2022/07/06 10:32:02;;;;;;;;;10.00;10.00;;;29.24;97583.23;;;;118925;1190;25081;-65
2022/07/06 10:34:30;;;;;;;;;10.00;9.25;;;29.16;97579.32;;;;118888;1191;25456;-64
2022/07/06 10:36:58;;;;;;;;;9.75;9.75;;;29.16;97575.77;;;;118881;1191;25497;-65
2022/07/06 10:42:43;;;;;;;;;10.75;9.25;;;29.15;97576.30;;;;118503;1192;25197;-65
2022/07/06 10:45:13;;;;;;;;;8.50;8.50;;;29.15;97573.91;;;;118918;1191;25785;-67
2022/07/06 10:47:42;;;;;;;;;8.25;8.25;;;29.13;97573.29;;;;118914;1190;25577;-65
2022/07/06 10:50:12;;;;;;;;;8.00;5.25;;;29.16;97573.02;;;;118905;1190;25687;-70
2022/07/06 10:52:52;;;;;;;;;10.75;9.25;;;29.15;97573.66;;;;118912;1190;25517;-72
2022/07/06 10:55:34;;;;;;;;;7.50;7.50;;;29.19;97577.25;;;;118941;1191;25320;-71
2022/07/06 10:58:03;;;;;;;;;9.00;8.25;;;29.23;97579.58;;;;118939;1191;24867;-69
2022/07/06 11:00:51;;;;;;;;;8.00;8.00;;;29.21;97583.15;;;;118927;1190;25352;-73
2022/07/06 11:03:39;;;;;;;;;7.50;6.00;;;29.22;97584.88;;;;118919;1191;24853;-71
2022/07/06 11:06:21;;;;;;;;;11.50;9.50;;;29.24;97583.95;;;;118935;1191;24904;-67
2022/07/06 11:08:52;;;;;;;;;6.75;5.50;;;29.25;97584.63;;;;118938;1191;25295;-72
2022/07/06 11:11:32;;;;;;;;;9.25;9.25;;;29.27;97584.36;;;;118874;1190;24763;-73
2022/07/06 11:14:29;;;;;;;;;9.50;8.50;;;29.25;97583.29;;;;118872;1190;25282;-74
2022/07/06 11:17:04;;;;;;;;;9.50;9.50;;;29.35;97582.05;;;;118857;1191;25249;-73
2022/07/06 11:19:35;;;;;;;;;9.75;9.75;;;29.34;97581.91;;;;118847;1191;25519;-80
2022/07/06 11:22:09;;;;;;;;;6.75;6.25;;;29.33;97579.30;;;;118950;1189;25296;-81
2022/07/06 11:24:39;;;;;;;;;6.00;6.00;;;29.37;97578.52;;;;118698;1191;25333;-67
2022/07/06 11:27:08;;;;;;;;;10.50;9.50;;;29.41;97576.04;;;;118899;1189;24933;-65
2022/07/06 11:29:38;;;;;;;;;10.50;10.50;;;29.35;97573.48;;;;118922;1190;24976;-65
2022/07/06 11:32:10;;;;;;;;;12.75;10.50;;;29.33;97575.20;;;;118918;1190;26128;-65
2022/07/06 11:34:42;;;;;;;;;9.00;8.00;;;29.33;97577.81;;;;118946;1190;25544;-69
2022/07/06 11:37:14;;;;;;;;;10.25;10.25;;;29.33;97581.96;;;;118910;1190;25824;-66
2022/07/06 11:39:44;;;;;;;;;11.50;9.25;;;29.37;97583.63;;;;118946;1190;26146;-67
2022/07/06 11:42:13;;;;;;;;;4.25;3.00;;;29.37;97583.94;;;;118943;1190;26303;-66
2022/07/06 11:44:42;;;;;;;;;12.33;12.00;;;29.34;97582.52;;;;118942;1191;25180;-67
2022/07/06 11:47:11;;;;;;;;;10.00;9.25;;;29.35;97584.39;;;;118874;1190;24811;-69
2022/07/06 11:49:40;;;;;;;;;8.00;8.00;;;29.33;97582.80;;;;118969;1190;25291;-70
2022/07/06 11:52:11;;;;;;;;;9.75;8.00;;;29.35;97582.96;;;;118952;1191;25754;-67
2022/07/06 11:54:43;;;;;;;;;9.67;8.67;;;29.38;97585.11;;;;118906;1191;25490;-72
2022/07/06 11:57:12;;;;;;;;;8.75;8.75;;;29.38;97585.36;;;;118940;1190;24885;-69
2022/07/06 11:59:42;;;;;;;;;10.00;10.00;;;29.36;97587.95;;;;118952;1191;24816;-66
2022/07/06 12:02:12;;;;;;;;;9.75;9.75;;;29.43;97586.38;;;;118945;1191;26122;-68
2022/07/06 12:04:42;;;;;;;;;8.50;7.75;;;29.38;97586.77;;;;118949;1190;25177;-68
2022/07/06 12:07:15;;;;;;;;;10.25;8.25;;;29.37;97585.96;;;;118900;1190;25155;-69
2022/07/06 12:09:46;;;;;;;;;9.00;9.00;;;29.36;97582.89;;;;118925;1191;25212;-77
2022/07/06 12:12:15;;;;;;;;;8.25;8.25;;;29.36;97580.63;;;;118953;1191;25187;-71
2022/07/06 12:14:43;;;;;;;;;8.75;8.75;;;29.40;97577.31;;;;118943;1191;25333;-70
2022/07/06 12:17:15;;;;;;;;;7.75;7.75;;;29.37;97579.41;;;;118894;1190;24978;-72
2022/07/06 12:19:43;;;;;;;;;7.25;6.50;;;29.37;97579.86;;;;118926;1191;25013;-71
2022/07/06 12:22:11;;;;;;;;;10.25;8.25;;;29.37;97579.30;;;;118885;1190;25295;-67
2022/07/06 12:24:44;;;;;;;;;6.50;6.25;;;29.33;97574.92;;;;118944;1191;25454;-64
2022/07/06 12:27:15;;;;;;;;;6.25;6.00;;;29.34;97572.48;;;;118921;1190;25636;-63
2022/07/06 12:29:45;;;;;;;;;8.50;8.00;;;29.42;97571.48;;;;118947;1191;25481;-63
2022/07/06 12:32:23;;;;;;;;;8.50;8.50;;;29.47;97574.41;;;;118955;1190;25566;-67
2022/07/06 12:35:08;;;;;;;;;8.50;7.50;;;29.53;97574.23;;;;118916;1190;25191;-67
2022/07/06 12:37:37;;;;;;;;;6.75;6.75;;;29.58;97574.42;;;;118937;1189;24876;-70
2022/07/06 12:40:13;;;;;;;;;9.50;8.50;;;29.58;97576.36;;;;118917;1190;25592;-71
2022/07/06 12:42:50;;;;;;;;;5.25;5.00;;;29.67;97572.94;;;;118930;1190;24711;-71
2022/07/06 12:45:18;;;;;;;;;7.25;6.75;;;29.74;97573.55;;;;118924;1190;26269;-70
2022/07/06 12:47:59;;;;;;;;;8.00;8.00;;;29.77;97576.64;;;;118910;1190;25698;-66
2022/07/06 12:50:35;;;;;;;;;8.75;7.50;;;29.86;97580.08;;;;118938;1190;25613;-66
2022/07/06 12:53:04;;;;;;;;;6.50;6.50;;;29.91;97581.55;;;;118923;1189;24732;-70
2022/07/06 12:55:32;;;;;;;;;9.25;9.25;;;29.95;97578.16;;;;118929;1190;25119;-70
2022/07/06 12:58:00;;;;;;;;;5.75;5.75;;;29.93;97578.66;;;;118833;1191;25299;-70
2022/07/06 13:00:28;;;;;;;;;8.25;8.25;;;30.01;97577.85;;;;118898;1190;25844;-73
2022/07/06 13:02:56;;;;;;;;;9.50;8.00;;;30.08;97579.48;;;;118901;1190;25325;-69
2022/07/06 13:05:39;;;;;;;;;7.00;7.00;;;30.21;97579.77;;;;118931;1191;25823;-71
2022/07/06 13:08:08;;;;;;;;;7.00;7.00;;;30.20;97582.50;;;;118946;1190;25939;-67
2022/07/06 13:10:37;;;;;;;;;8.33;8.33;;;30.25;97580.50;;;;118920;1190;24932;-69